createdAt,value
2022-10-12T00:00:25.556Z,11.9
2022-10-12T00:01:32.156Z,11.9
2022-10-12T00:02:39.235Z,11.9
2022-10-12T00:03:46.477Z,12
2022-10-12T00:06:00.614Z,11.9
2022-10-12T00:07:07.086Z,11.9
2022-10-12T00:08:14.311Z,11.9
2022-10-12T00:09:21.330Z,11.9
2022-10-12T00:10:28.489Z,11.9
2022-10-12T00:11:35.604Z,11.9
2022-10-12T00:12:42.154Z,11.9
2022-10-12T00:13:49.370Z,11.9
2022-10-12T00:14:56.358Z,11.9
2022-10-12T00:16:03.429Z,11.9
2022-10-12T00:17:10.529Z,11.8
2022-10-12T00:18:17.237Z,11.8
2022-10-12T00:19:24.346Z,11.8
2022-10-12T00:20:31.310Z,11.7
2022-10-12T00:21:38.492Z,11.7
2022-10-12T00:22:45.586Z,11.7
2022-10-12T00:24:59.336Z,11.7
2022-10-12T00:26:06.352Z,11.7
2022-10-12T00:27:13.476Z,11.7
2022-10-12T00:28:20.609Z,11.6
2022-10-12T00:29:27.158Z,11.6
2022-10-12T00:30:34.275Z,11.6
2022-10-12T00:32:48.520Z,11.5
2022-10-12T00:33:55.668Z,11.5
2022-10-12T00:35:02.174Z,11.4
2022-10-12T00:36:09.289Z,11.4
2022-10-12T00:37:16.360Z,11.4
2022-10-12T00:38:23.457Z,11.4
2022-10-12T00:39:30.601Z,11.3
2022-10-12T00:40:37.381Z,11.3
2022-10-12T00:41:44.814Z,11.3
2022-10-12T00:42:51.367Z,11.3
2022-10-12T00:43:59.046Z,11.3
2022-10-12T00:45:05.067Z,11.2
2022-10-12T00:46:12.170Z,11.2
2022-10-12T00:47:19.286Z,11.2
2022-10-12T00:48:26.427Z,11.2
2022-10-12T00:49:33.576Z,11.2
2022-10-12T00:50:40.594Z,11.2
2022-10-12T00:52:54.316Z,11.2
2022-10-12T00:54:01.374Z,11.2
2022-10-12T00:55:08.555Z,11.2
2022-10-12T00:56:15.167Z,11.2
2022-10-12T00:57:22.211Z,11.2
2022-10-12T00:58:29.300Z,11.2
2022-10-12T00:59:36.405Z,11.1
2022-10-12T01:00:43.591Z,11.1
2022-10-12T01:01:50.145Z,11.1
2022-10-12T01:02:57.227Z,11.2
2022-10-12T01:04:04.334Z,11.2
2022-10-12T01:05:12.026Z,11.2
2022-10-12T01:06:18.544Z,11.2
2022-10-12T01:07:25.146Z,11.2
2022-10-12T01:08:32.202Z,11.2
2022-10-12T01:09:39.306Z,11.2
2022-10-12T01:10:46.475Z,11.2
2022-10-12T01:11:53.497Z,11.2
2022-10-12T01:13:00.158Z,11.2
2022-10-12T01:14:07.201Z,11.3
2022-10-12T01:15:14.336Z,11.3
2022-10-12T01:16:21.497Z,11.3
2022-10-12T01:17:28.501Z,11.3
2022-10-12T01:18:35.146Z,11.3
2022-10-12T01:19:42.228Z,11.3
2022-10-12T01:20:49.292Z,11.3
2022-10-12T01:21:56.407Z,11.3
2022-10-12T01:23:03.547Z,11.3
2022-10-12T01:24:10.165Z,11.3
2022-10-12T01:25:17.231Z,11.3
2022-10-12T01:26:24.320Z,11.3
2022-10-12T01:27:31.407Z,11.3
2022-10-12T01:28:38.587Z,11.3
2022-10-12T01:29:45.221Z,11.4
2022-10-12T01:30:52.298Z,11.4
2022-10-12T01:31:59.375Z,11.4
2022-10-12T01:34:13.563Z,11.4
2022-10-12T01:36:27.239Z,11.4
2022-10-12T01:37:34.422Z,11.4
2022-10-12T01:38:41.502Z,11.4
2022-10-12T01:39:48.647Z,11.4
2022-10-12T01:40:55.180Z,11.4
2022-10-12T01:42:02.253Z,11.4
2022-10-12T01:43:09.393Z,11.4
2022-10-12T01:44:16.500Z,11.5
2022-10-12T01:45:23.583Z,11.5
2022-10-12T01:46:30.722Z,11.6
2022-10-12T01:47:37.645Z,11.6
2022-10-12T01:48:44.412Z,11.6
2022-10-12T01:49:51.447Z,11.6
2022-10-12T01:50:58.694Z,11.6
2022-10-12T01:52:05.192Z,11.6
2022-10-12T01:53:12.266Z,11.6
2022-10-12T01:54:18.866Z,11.6
2022-10-12T01:55:26.517Z,11.6
2022-10-12T01:56:33.065Z,11.6
2022-10-12T01:57:40.722Z,11.5
2022-10-12T01:58:47.263Z,11.5
2022-10-12T01:59:54.408Z,11.5
2022-10-12T02:01:01.632Z,11.4
2022-10-12T02:02:08.110Z,11.5
2022-10-12T02:03:15.171Z,11.4
2022-10-12T02:04:22.253Z,11.4
2022-10-12T02:05:29.427Z,11.4
2022-10-12T02:06:36.486Z,11.4
2022-10-12T02:07:43.087Z,11.4
2022-10-12T02:08:50.187Z,11.4
2022-10-12T02:11:04.394Z,11.4
2022-10-12T02:12:11.525Z,11.4
2022-10-12T02:13:18.136Z,11.4
2022-10-12T02:14:25.215Z,11.4
2022-10-12T02:15:32.380Z,11.3
2022-10-12T02:16:39.502Z,11.3
2022-10-12T02:17:46.505Z,11.3
2022-10-12T02:18:53.077Z,11.3
2022-10-12T02:20:00.194Z,11.3
2022-10-12T02:21:07.338Z,11.3
2022-10-12T02:22:13.873Z,11.3
2022-10-12T02:23:21.482Z,11.3
2022-10-12T02:24:28.171Z,11.3
2022-10-12T02:25:35.242Z,11.3
2022-10-12T02:26:42.336Z,11.3
2022-10-12T02:28:56.566Z,11.3
2022-10-12T02:30:03.101Z,11.3
2022-10-12T02:31:10.206Z,11.3
2022-10-12T02:32:17.312Z,11.2
2022-10-12T02:33:24.424Z,11.2
2022-10-12T02:34:31.495Z,11.2
2022-10-12T02:35:38.107Z,11.2
2022-10-12T02:36:45.291Z,11.2
2022-10-12T02:37:52.365Z,11.2
2022-10-12T02:40:06.527Z,11.2
2022-10-12T02:41:13.132Z,11.2
2022-10-12T02:42:20.229Z,11.2
2022-10-12T02:43:27.329Z,11.1
2022-10-12T02:44:34.481Z,11.1
2022-10-12T02:45:41.546Z,11
2022-10-12T02:46:48.140Z,11
2022-10-12T02:47:55.285Z,11.1
2022-10-12T02:49:02.338Z,11.1
2022-10-12T02:51:16.130Z,11.1
2022-10-12T02:52:23.105Z,11
2022-10-12T02:53:30.228Z,11
2022-10-12T02:54:37.388Z,11.1
2022-10-12T02:55:44.476Z,11.1
2022-10-12T02:56:51.523Z,11.2
2022-10-12T02:57:58.734Z,11.2
2022-10-12T02:59:05.277Z,11.2
2022-10-12T03:00:12.366Z,11.2
2022-10-12T03:02:26.108Z,11.1
2022-10-12T03:03:33.175Z,11.1
2022-10-12T03:04:40.296Z,11.1
2022-10-12T03:05:47.353Z,11.1
2022-10-12T03:06:54.466Z,11.1
2022-10-12T03:08:01.049Z,11.1
2022-10-12T03:10:15.327Z,11.1
2022-10-12T03:11:22.429Z,11.1
2022-10-12T03:12:31.917Z,11.1
2022-10-12T03:13:36.061Z,11.1
2022-10-12T03:14:43.236Z,11.1
2022-10-12T03:15:50.243Z,11.1
2022-10-12T03:16:57.417Z,11.1
2022-10-12T03:19:11.036Z,11.1
2022-10-12T03:20:18.189Z,11.1
2022-10-12T03:21:25.326Z,11
2022-10-12T03:22:32.399Z,11.1
2022-10-12T03:23:39.537Z,11
2022-10-12T03:24:46.081Z,11.1
2022-10-12T03:25:53.303Z,11.1
2022-10-12T03:27:00.308Z,11.1
2022-10-12T03:28:07.428Z,11.2
2022-10-12T03:29:14.494Z,11.2
2022-10-12T03:30:21.097Z,11.3
2022-10-12T03:31:28.241Z,11.3
2022-10-12T03:32:35.337Z,11.3
2022-10-12T03:33:42.425Z,11.3
2022-10-12T03:34:49.536Z,11.4
2022-10-12T03:35:56.125Z,11.4
2022-10-12T03:37:03.207Z,11.4
2022-10-12T03:38:10.826Z,11.5
2022-10-12T03:39:17.398Z,11.5
2022-10-12T03:40:24.538Z,11.5
2022-10-12T03:41:31.166Z,11.5
2022-10-12T03:43:45.361Z,11.5
2022-10-12T03:44:52.398Z,11.5
2022-10-12T03:45:59.562Z,11.5
2022-10-12T03:47:06.136Z,11.4
2022-10-12T03:48:13.209Z,11.5
2022-10-12T03:49:20.325Z,11.4
2022-10-12T03:51:34.536Z,11.4
2022-10-12T03:52:41.116Z,11.4
2022-10-12T03:53:48.247Z,11.4
2022-10-12T03:54:55.397Z,11.4
2022-10-12T03:56:02.446Z,11.3
2022-10-12T03:57:09.585Z,11.3
2022-10-12T03:58:16.169Z,11.3
2022-10-12T03:59:23.195Z,11.3
2022-10-12T04:00:30.339Z,11.3
2022-10-12T04:01:38.279Z,11.3
2022-10-12T04:02:44.126Z,11.3
2022-10-12T04:03:51.135Z,11.3
2022-10-12T04:04:58.269Z,11.3
2022-10-12T04:06:05.390Z,11.2
2022-10-12T04:07:12.447Z,11.2
2022-10-12T04:08:19.055Z,11.2
2022-10-12T04:09:26.186Z,11.2
2022-10-12T04:10:33.223Z,11.2
2022-10-12T04:11:40.333Z,11.2
2022-10-12T04:12:47.453Z,11.2
2022-10-12T04:13:54.036Z,11.2
2022-10-12T04:15:01.108Z,11.2
2022-10-12T04:16:08.335Z,11.2
2022-10-12T04:17:15.411Z,11.2
2022-10-12T04:18:22.486Z,11.2
2022-10-12T04:19:29.064Z,11.2
2022-10-12T04:20:36.177Z,11.2
2022-10-12T04:21:43.222Z,11.2
2022-10-12T04:22:50.349Z,11.2
2022-10-12T04:23:57.467Z,11.2
2022-10-12T04:25:04.048Z,11.2
2022-10-12T04:26:11.154Z,11.2
2022-10-12T04:27:18.305Z,11.2
2022-10-12T04:28:25.412Z,11.2
2022-10-12T04:30:39.064Z,11.2
2022-10-12T04:32:53.357Z,11.3
2022-10-12T04:34:00.360Z,11.3
2022-10-12T04:35:07.482Z,11.3
2022-10-12T04:36:14.190Z,11.3
2022-10-12T04:37:21.165Z,11.3
2022-10-12T04:38:28.326Z,11.3
2022-10-12T04:39:35.401Z,11.3
2022-10-12T04:40:42.461Z,11.3
2022-10-12T04:41:49.080Z,11.3
2022-10-12T04:42:56.232Z,11.3
2022-10-12T04:44:03.307Z,11.3
2022-10-12T04:45:10.414Z,11.4
2022-10-12T04:47:24.157Z,11.4
2022-10-12T04:49:38.290Z,11.4
2022-10-12T04:50:45.388Z,11.4
2022-10-12T04:51:52.557Z,11.4
2022-10-12T04:52:59.095Z,11.4
2022-10-12T04:54:06.206Z,11.4
2022-10-12T04:55:13.299Z,11.4
2022-10-12T04:56:20.426Z,11.4
2022-10-12T04:57:27.568Z,11.4
2022-10-12T04:58:34.140Z,11.4
2022-10-12T04:59:41.238Z,11.5
2022-10-12T05:00:48.309Z,11.5
2022-10-12T05:01:55.636Z,11.5
2022-10-12T05:03:02.485Z,11.6
2022-10-12T05:04:09.168Z,11.6
2022-10-12T05:05:16.769Z,11.6
2022-10-12T05:06:23.380Z,11.6
2022-10-12T05:07:30.458Z,11.6
2022-10-12T05:08:37.021Z,11.6
2022-10-12T05:09:44.138Z,11.6
2022-10-12T05:10:51.245Z,11.6
2022-10-12T05:11:58.329Z,11.5
2022-10-12T05:14:11.985Z,11.6
2022-10-12T05:15:19.166Z,11.6
2022-10-12T05:17:33.302Z,11.6
2022-10-12T05:18:40.457Z,11.6
2022-10-12T05:19:47.036Z,11.6
2022-10-12T05:20:57.051Z,11.6
2022-10-12T05:22:01.287Z,11.6
2022-10-12T05:23:08.370Z,11.6
2022-10-12T05:24:15.493Z,11.6
2022-10-12T05:25:22.029Z,11.6
2022-10-12T05:26:29.247Z,11.6
2022-10-12T05:27:36.511Z,11.6
2022-10-12T05:28:43.396Z,11.6
2022-10-12T05:29:50.459Z,11.6
2022-10-12T05:30:57.565Z,11.6
2022-10-12T05:32:04.225Z,11.6
2022-10-12T05:33:11.270Z,11.6
2022-10-12T05:34:18.403Z,11.6
2022-10-12T05:35:25.456Z,11.6
2022-10-12T05:36:32.108Z,11.6
2022-10-12T05:37:39.632Z,11.6
2022-10-12T05:38:46.409Z,11.6
2022-10-12T05:39:53.366Z,11.6
2022-10-12T05:41:00.860Z,11.6
2022-10-12T05:42:07.153Z,11.6
2022-10-12T05:43:14.177Z,11.6
2022-10-12T05:44:21.247Z,11.6
2022-10-12T05:45:28.405Z,11.6
2022-10-12T05:46:35.508Z,11.6
2022-10-12T05:47:42.074Z,11.6
2022-10-12T05:48:49.164Z,11.6
2022-10-12T05:49:56.456Z,11.6
2022-10-12T05:51:03.387Z,11.6
2022-10-12T05:52:10.506Z,11.5
2022-10-12T05:53:17.073Z,11.5
2022-10-12T05:55:31.285Z,11.5
2022-10-12T05:56:38.351Z,11.5
2022-10-12T05:57:48.469Z,11.6
2022-10-12T05:58:52.047Z,11.5
2022-10-12T05:59:59.229Z,11.6
2022-10-12T06:01:06.397Z,11.6
2022-10-12T06:02:13.427Z,11.6
2022-10-12T06:03:25.375Z,11.6
2022-10-12T06:04:27.056Z,11.6
2022-10-12T06:05:34.213Z,11.6
2022-10-12T06:06:41.623Z,11.6
2022-10-12T06:07:48.401Z,11.6
2022-10-12T06:08:55.575Z,11.6
2022-10-12T06:10:02.097Z,11.6
2022-10-12T06:11:09.264Z,11.6
2022-10-12T06:12:16.345Z,11.6
2022-10-12T06:13:23.416Z,11.6
2022-10-12T06:14:29.991Z,11.6
2022-10-12T06:15:37.244Z,11.6
2022-10-12T06:16:44.227Z,11.6
2022-10-12T06:17:51.274Z,11.6
2022-10-12T06:18:57.891Z,11.6
2022-10-12T06:20:05.041Z,11.6
2022-10-12T06:21:32.346Z,11.6
2022-10-12T06:22:19.246Z,11.6
2022-10-12T06:23:26.336Z,11.6
2022-10-12T06:24:33.384Z,11.6
2022-10-12T06:25:40.010Z,11.6
2022-10-12T06:26:47.336Z,11.6
2022-10-12T06:27:54.211Z,11.6
2022-10-12T06:29:01.339Z,11.6
2022-10-12T06:30:08.474Z,11.6
2022-10-12T06:31:15.070Z,11.6
2022-10-12T06:32:22.138Z,11.6
2022-10-12T06:33:29.287Z,11.6
2022-10-12T06:34:36.369Z,11.6
2022-10-12T06:36:50.035Z,11.6
2022-10-12T06:37:57.196Z,11.7
2022-10-12T06:39:04.234Z,11.7
2022-10-12T06:40:11.355Z,11.7
2022-10-12T06:41:18.473Z,11.7
2022-10-12T06:42:25.034Z,11.7
2022-10-12T06:43:32.112Z,11.7
2022-10-12T06:44:39.293Z,11.7
2022-10-12T06:45:46.377Z,11.7
2022-10-12T06:46:52.896Z,11.7
2022-10-12T06:48:00.057Z,11.7
2022-10-12T06:49:07.151Z,11.7
2022-10-12T06:50:14.287Z,11.6
2022-10-12T06:51:21.325Z,11.6
2022-10-12T06:52:28.506Z,11.6
2022-10-12T06:54:42.170Z,11.6
2022-10-12T06:55:49.268Z,11.6
2022-10-12T06:56:58.748Z,11.6
2022-10-12T06:58:03.519Z,11.5
2022-10-12T06:59:10.106Z,11.5
2022-10-12T07:00:17.187Z,11.5
2022-10-12T07:01:24.389Z,11.4
2022-10-12T07:02:31.977Z,11.4
2022-10-12T07:03:37.997Z,11.4
2022-10-12T07:04:45.122Z,11.4
2022-10-12T07:05:52.137Z,11.4
2022-10-12T07:06:59.266Z,11.4
2022-10-12T07:08:06.437Z,11.4
2022-10-12T07:09:12.979Z,11.4
2022-10-12T07:10:20.067Z,11.4
2022-10-12T07:11:27.309Z,11.4
2022-10-12T07:12:34.964Z,11.4
2022-10-12T07:13:41.407Z,11.4
2022-10-12T07:15:55.106Z,11.4
2022-10-12T07:18:09.330Z,11.4
2022-10-12T07:19:16.435Z,11.4
2022-10-12T07:20:23.032Z,11.3
2022-10-12T07:21:30.089Z,11.3
2022-10-12T07:22:37.242Z,11.3
2022-10-12T07:23:46.236Z,11.3
2022-10-12T07:24:51.379Z,11.3
2022-10-12T07:25:57.992Z,11.3
2022-10-12T07:27:05.194Z,11.4
2022-10-12T07:28:12.318Z,11.3
2022-10-12T07:29:19.273Z,11.3
2022-10-12T07:30:26.442Z,11.3
2022-10-12T07:31:33.033Z,11.3
2022-10-12T07:32:40.148Z,11.3
2022-10-12T07:33:47.253Z,11.3
2022-10-12T07:34:54.322Z,11.3
2022-10-12T07:36:14.658Z,11.3
2022-10-12T07:37:08.014Z,11.3
2022-10-12T07:38:15.211Z,11.3
2022-10-12T07:39:22.242Z,11.3
2022-10-12T07:40:29.384Z,11.3
2022-10-12T07:41:36.534Z,11.3
2022-10-12T07:43:50.195Z,11.3
2022-10-12T07:44:57.290Z,11.3
2022-10-12T07:46:04.332Z,11.2
2022-10-12T07:47:11.478Z,11.2
2022-10-12T07:48:18.076Z,11.2
2022-10-12T07:49:25.125Z,11.2
2022-10-12T07:50:32.302Z,11.2
2022-10-12T07:51:39.376Z,11.2
2022-10-12T07:52:46.465Z,11.2
2022-10-12T07:53:53.054Z,11.2
2022-10-12T07:55:00.184Z,11.2
2022-10-12T07:56:07.281Z,11.2
2022-10-12T07:59:28.118Z,11.2
2022-10-12T08:00:35.149Z,11.2
2022-10-12T08:01:42.499Z,11.2
2022-10-12T08:02:49.354Z,11.2
2022-10-12T08:04:01.025Z,11.2
2022-10-12T08:05:03.069Z,11.2
2022-10-12T08:06:10.147Z,11.2
2022-10-12T08:07:17.296Z,11.2
2022-10-12T08:08:24.404Z,11.2
2022-10-12T08:09:30.941Z,11.2
2022-10-12T08:11:45.234Z,11.2
2022-10-12T08:12:52.465Z,11.3
2022-10-12T08:13:59.410Z,11.3
2022-10-12T08:15:06.009Z,11.3
2022-10-12T08:16:13.542Z,11.3
2022-10-12T08:17:20.257Z,11.3
2022-10-12T08:18:27.295Z,11.3
2022-10-12T08:19:35.425Z,11.3
2022-10-12T08:20:40.952Z,11.3
2022-10-12T08:21:48.098Z,11.3
2022-10-12T08:22:55.197Z,11.3
2022-10-12T08:24:02.301Z,11.3
2022-10-12T08:25:09.456Z,11.3
2022-10-12T08:26:16.055Z,11.3
2022-10-12T08:27:23.101Z,11.3
2022-10-12T08:28:30.248Z,11.3
2022-10-12T08:29:37.334Z,11.3
2022-10-12T08:30:44.435Z,11.3
2022-10-12T08:31:50.941Z,11.3
2022-10-12T08:32:58.078Z,11.3
2022-10-12T08:34:05.228Z,11.3
2022-10-12T08:35:12.260Z,11.3
2022-10-12T08:36:19.400Z,11.3
2022-10-12T08:37:25.979Z,11.3
2022-10-12T08:40:47.364Z,11.4
2022-10-12T08:41:54.427Z,11.3
2022-10-12T08:43:00.955Z,11.3
2022-10-12T08:44:08.135Z,11.3
2022-10-12T08:45:15.237Z,11.4
2022-10-12T08:46:22.276Z,11.3
2022-10-12T08:47:29.458Z,11.3
2022-10-12T08:48:36.029Z,11.4
2022-10-12T08:49:47.418Z,11.4
2022-10-12T08:50:50.350Z,11.4
2022-10-12T08:51:57.369Z,11.3
2022-10-12T08:53:04.459Z,11.3
2022-10-12T08:54:10.968Z,11.2
2022-10-12T08:55:18.178Z,11.2
2022-10-12T08:56:25.248Z,11.2
2022-10-12T08:57:32.300Z,11.2
2022-10-12T08:58:39.484Z,11.2
2022-10-12T08:59:46.058Z,11.2
2022-10-12T09:02:00.458Z,11.2
2022-10-12T09:03:07.388Z,11.2
2022-10-12T09:04:13.887Z,11.2
2022-10-12T09:05:21.036Z,11.2
2022-10-12T09:06:28.169Z,11.1
2022-10-12T09:07:35.273Z,11
2022-10-12T09:08:42.347Z,10.9
2022-10-12T09:09:49.496Z,10.9
2022-10-12T09:10:56.079Z,10.7
2022-10-12T09:12:03.138Z,10.7
2022-10-12T09:13:10.259Z,10.6
2022-10-12T09:14:17.715Z,10.6
2022-10-12T09:15:24.445Z,10.6
2022-10-12T09:16:31.439Z,10.5
2022-10-12T09:17:38.252Z,10.5
2022-10-12T09:18:45.289Z,10.5
2022-10-12T09:19:52.886Z,10.4
2022-10-12T09:22:06.166Z,10.5
2022-10-12T09:23:13.119Z,10.4
2022-10-12T09:24:20.294Z,10.4
2022-10-12T09:25:27.408Z,10.4
2022-10-12T09:26:33.947Z,10.3
2022-10-12T09:27:45.115Z,10.3
2022-10-12T09:28:48.273Z,10.3
2022-10-12T09:29:55.293Z,10.4
2022-10-12T09:32:09.012Z,10.3
2022-10-12T09:33:16.102Z,10.3
2022-10-12T09:35:30.295Z,10.2
2022-10-12T09:36:37.368Z,10.2
2022-10-12T09:37:43.972Z,10.2
2022-10-12T09:38:51.068Z,10.2
2022-10-12T09:39:58.196Z,10.1
2022-10-12T09:41:05.327Z,10
2022-10-12T09:42:12.372Z,10
2022-10-12T09:43:19.005Z,10
2022-10-12T09:44:26.080Z,10.1
2022-10-12T09:45:33.178Z,10
2022-10-12T09:46:40.381Z,10
2022-10-12T09:47:47.378Z,10
2022-10-12T09:48:54.136Z,10
2022-10-12T09:50:01.090Z,10
2022-10-12T09:51:08.217Z,10
2022-10-12T09:52:15.328Z,10
2022-10-12T09:53:22.395Z,10
2022-10-12T09:54:29.036Z,10
2022-10-12T09:55:36.166Z,10
2022-10-12T09:56:43.219Z,10
2022-10-12T09:57:50.283Z,10
2022-10-12T09:58:57.456Z,10
2022-10-12T10:00:04.056Z,10
2022-10-12T10:01:11.122Z,10
2022-10-12T10:03:30.662Z,10
2022-10-12T10:05:39.047Z,10
2022-10-12T10:06:46.149Z,10
2022-10-12T10:07:53.216Z,10.1
2022-10-12T10:08:59.852Z,10
2022-10-12T10:10:06.977Z,10
2022-10-12T10:11:14.059Z,10
2022-10-12T10:12:21.172Z,10
2022-10-12T10:13:28.272Z,10
2022-10-12T10:14:35.365Z,10
2022-10-12T10:15:41.925Z,10
2022-10-12T10:16:49.157Z,10
2022-10-12T10:17:56.179Z,10
2022-10-12T10:19:03.262Z,10
2022-10-12T10:20:11.347Z,10
2022-10-12T10:21:16.962Z,10.1
2022-10-12T10:22:24.025Z,10.1
2022-10-12T10:23:31.629Z,10.1
2022-10-12T10:24:38.232Z,10.2
2022-10-12T10:25:45.341Z,10.2
2022-10-12T10:26:51.991Z,10.2
2022-10-12T10:27:59.025Z,10.2
2022-10-12T10:29:06.178Z,10.2
2022-10-12T10:30:28.692Z,10.3
2022-10-12T10:31:20.355Z,10.3
2022-10-12T10:32:26.937Z,10.3
2022-10-12T10:33:34.093Z,10.3
2022-10-12T10:34:41.163Z,10.3
2022-10-12T10:35:50.085Z,10.4
2022-10-12T10:36:54.978Z,10.4
2022-10-12T10:38:01.951Z,10.4
2022-10-12T10:39:09.129Z,10.4
2022-10-12T10:40:16.541Z,10.4
2022-10-12T10:41:23.272Z,10.4
2022-10-12T10:42:32.222Z,10.4
2022-10-12T10:44:44.091Z,10.4
2022-10-12T10:45:51.191Z,10.4
2022-10-12T10:46:58.309Z,10.5
2022-10-12T10:48:05.341Z,10.5
2022-10-12T10:49:11.915Z,10.6
2022-10-12T10:50:19.494Z,10.6
2022-10-12T10:51:26.177Z,10.6
2022-10-12T10:52:33.334Z,10.6
2022-10-12T10:53:40.336Z,10.6
2022-10-12T10:54:47.008Z,10.6
2022-10-12T10:55:54.127Z,10.6
2022-10-12T10:57:01.227Z,10.6
2022-10-12T10:58:08.356Z,10.6
2022-10-12T11:01:30.252Z,10.6
2022-10-12T11:02:36.142Z,10.6
2022-10-12T11:03:45.962Z,10.6
2022-10-12T11:05:57.029Z,10.6
2022-10-12T11:07:04.151Z,10.6
2022-10-12T11:09:18.361Z,10.5
2022-10-12T11:10:25.393Z,10.5
2022-10-12T11:11:32.021Z,10.5
2022-10-12T11:12:39.142Z,10.5
2022-10-12T11:13:46.207Z,10.5
2022-10-12T11:14:53.308Z,10.6
2022-10-12T11:16:00.431Z,10.6
2022-10-12T11:17:07.062Z,10.6
2022-10-12T11:18:14.137Z,10.6
2022-10-12T11:19:21.167Z,10.7
2022-10-12T11:20:28.301Z,10.7
2022-10-12T11:21:35.459Z,10.7
2022-10-12T11:22:42.018Z,10.7
2022-10-12T11:23:49.177Z,10.8
2022-10-12T11:26:03.332Z,10.8
2022-10-12T11:27:10.447Z,10.8
2022-10-12T11:28:17.107Z,10.9
2022-10-12T11:29:24.222Z,10.9
2022-10-12T11:30:31.249Z,10.9
2022-10-12T11:31:38.369Z,10.9
2022-10-12T11:33:52.079Z,10.9
2022-10-12T11:34:59.180Z,11
2022-10-12T11:36:06.384Z,11
2022-10-12T11:37:19.906Z,11
2022-10-12T11:38:20.038Z,11
2022-10-12T11:39:27.104Z,11
2022-10-12T11:41:02.621Z,11
2022-10-12T11:41:52.509Z,11
2022-10-12T11:42:48.864Z,11
2022-10-12T11:43:54.948Z,11
2022-10-12T11:45:02.062Z,11.1
2022-10-12T11:46:09.199Z,11
2022-10-12T11:47:16.427Z,11
2022-10-12T11:48:26.998Z,11.1
2022-10-12T11:49:29.968Z,11.1
2022-10-12T11:50:37.115Z,11.1
2022-10-12T11:51:44.217Z,11.1
2022-10-12T11:52:51.265Z,11.2
2022-10-12T11:53:58.393Z,11.2
2022-10-12T11:55:04.960Z,11.3
2022-10-12T11:56:20.007Z,11.3
2022-10-12T11:57:19.197Z,11.3
2022-10-12T11:58:42.027Z,11.3
2022-10-12T11:59:33.388Z,11.3
2022-10-12T12:01:47.280Z,11.3
2022-10-12T12:02:54.159Z,11.3
2022-10-12T12:04:17.176Z,11.3
2022-10-12T12:05:10.752Z,11.3
2022-10-12T12:07:22.057Z,11.3
2022-10-12T12:08:29.229Z,11.3
2022-10-12T12:09:36.285Z,11.3
2022-10-12T12:10:43.408Z,11.3
2022-10-12T12:12:57.180Z,11.5
2022-10-12T12:14:04.231Z,11.6
2022-10-12T12:15:11.305Z,11.6
2022-10-12T12:16:18.379Z,11.6
2022-10-12T12:17:30.827Z,11.6
2022-10-12T12:18:32.103Z,11.6
2022-10-12T12:19:39.338Z,11.6
2022-10-12T12:20:46.331Z,11.6
2022-10-12T12:21:53.352Z,11.5
2022-10-12T12:23:00.069Z,11.5
2022-10-12T12:24:08.174Z,11.5
2022-10-12T12:25:14.199Z,11.5
2022-10-12T12:26:21.260Z,11.5
2022-10-12T12:28:35.117Z,11.4
2022-10-12T12:29:42.383Z,11.4
2022-10-12T12:30:49.768Z,11.4
2022-10-12T12:31:56.361Z,11.4
2022-10-12T12:33:02.969Z,11.4
2022-10-12T12:34:10.041Z,11.4
2022-10-12T12:35:17.090Z,11.4
2022-10-12T12:36:24.203Z,11.4
2022-10-12T12:37:31.305Z,11.4
2022-10-12T12:38:37.889Z,11.4
2022-10-12T12:39:45.256Z,11.4
2022-10-12T12:40:52.102Z,11.4
2022-10-12T12:42:02.018Z,11.5
2022-10-12T12:43:06.363Z,11.6
2022-10-12T12:44:12.922Z,11.6
2022-10-12T12:45:20.079Z,11.6
2022-10-12T12:46:27.103Z,11.5
2022-10-12T12:48:41.292Z,11.5
2022-10-12T12:49:47.933Z,11.5
2022-10-12T12:50:55.002Z,11.5
2022-10-12T12:52:02.194Z,11.4
2022-10-12T12:53:09.222Z,11.4
2022-10-12T12:54:16.358Z,11.4
2022-10-12T12:55:22.937Z,11.5
2022-10-12T12:56:30.009Z,11.5
2022-10-12T12:57:37.230Z,11.5
2022-10-12T12:58:44.276Z,11.5
2022-10-12T12:59:51.338Z,11.5
2022-10-12T13:00:58.028Z,11.5
2022-10-12T13:02:05.149Z,11.5
2022-10-12T13:04:19.274Z,11.4
2022-10-12T13:05:26.930Z,11.4
2022-10-12T13:06:32.951Z,11.5
2022-10-12T13:07:40.173Z,11.6
2022-10-12T13:08:47.157Z,11.7
2022-10-12T13:09:54.248Z,11.8
2022-10-12T13:11:01.356Z,11.9
2022-10-12T13:12:07.940Z,11.9
2022-10-12T13:13:15.105Z,11.7
2022-10-12T13:14:22.116Z,11.6
2022-10-12T13:17:23.844Z,11.4
2022-10-12T13:17:43.118Z,11.4
2022-10-12T13:18:50.050Z,11.3
2022-10-12T13:19:57.186Z,11.3
2022-10-12T13:21:04.260Z,11.3
2022-10-12T13:22:11.437Z,11.3
2022-10-12T13:23:17.978Z,11.3
2022-10-12T13:24:25.078Z,11.3
2022-10-12T13:25:32.128Z,11.3
2022-10-12T13:26:39.305Z,11.3
2022-10-12T13:27:46.452Z,11.3
2022-10-12T13:30:00.102Z,11.3
2022-10-12T13:32:14.312Z,11.3
2022-10-12T13:33:20.870Z,11.3
2022-10-12T13:34:28.550Z,11.3
2022-10-12T13:35:35.070Z,11.3
2022-10-12T13:36:42.182Z,11.3
2022-10-12T13:37:49.318Z,11.3
2022-10-12T13:38:55.877Z,11.3
2022-10-12T13:40:02.993Z,11.3
2022-10-12T13:41:10.088Z,11.3
2022-10-12T13:42:17.249Z,11.3
2022-10-12T13:43:24.301Z,11.4
2022-10-12T13:44:30.887Z,11.4
2022-10-12T13:45:38.060Z,11.4
2022-10-12T13:46:45.667Z,11.5
2022-10-12T13:47:52.159Z,11.5
2022-10-12T13:49:00.264Z,11.6
2022-10-12T13:50:05.948Z,11.6
2022-10-12T13:51:12.959Z,11.7
2022-10-12T13:52:20.202Z,11.7
2022-10-12T13:53:27.284Z,11.7
2022-10-12T13:54:34.357Z,11.8
2022-10-12T13:56:48.071Z,11.9
2022-10-12T13:57:55.137Z,11.9
2022-10-12T14:00:09.370Z,11.9
2022-10-12T14:01:16.039Z,11.9
2022-10-12T14:02:23.124Z,11.9
2022-10-12T14:03:30.194Z,11.8
2022-10-12T14:04:37.287Z,11.7
2022-10-12T14:05:44.410Z,11.7
2022-10-12T14:06:50.967Z,11.6
2022-10-12T14:07:58.208Z,11.6
2022-10-12T14:09:05.184Z,11.6
2022-10-12T14:10:12.187Z,11.7
2022-10-12T14:11:19.383Z,11.7
2022-10-12T14:12:25.982Z,11.7
2022-10-12T14:13:33.057Z,11.7
2022-10-12T14:14:40.126Z,11.7
2022-10-12T14:15:47.229Z,11.7
2022-10-12T14:16:54.404Z,11.8
2022-10-12T14:18:00.957Z,11.8
2022-10-12T14:20:15.204Z,11.7
2022-10-12T14:21:22.279Z,11.7
2022-10-12T14:22:32.162Z,11.6
2022-10-12T14:23:36.008Z,11.6
2022-10-12T14:24:43.046Z,11.6
2022-10-12T14:25:51.238Z,11.5
2022-10-12T14:28:05.009Z,11.4
2022-10-12T14:29:10.954Z,11.4
2022-10-12T14:30:18.102Z,11.3
2022-10-12T14:31:25.142Z,11.3
2022-10-12T14:32:32.305Z,11.2
2022-10-12T14:33:38.828Z,11.2
2022-10-12T14:34:46.006Z,11.2
2022-10-12T14:35:53.023Z,11.2
2022-10-12T14:37:00.562Z,11.1
2022-10-12T14:38:07.782Z,11.1
2022-10-12T14:39:13.858Z,11.2
2022-10-12T14:40:20.914Z,11.2
2022-10-12T14:41:28.163Z,11.2
2022-10-12T14:42:35.201Z,11.2
2022-10-12T14:43:42.339Z,11.2
2022-10-12T14:44:48.846Z,11.2
2022-10-12T14:45:55.981Z,11.3
2022-10-12T14:47:03.085Z,11.3
2022-10-12T14:48:10.300Z,11.3
2022-10-12T14:49:17.240Z,11.3
2022-10-12T14:50:23.827Z,11.3
2022-10-12T14:51:31.009Z,11.3
2022-10-12T14:52:38.143Z,11.3
2022-10-12T14:53:45.233Z,11.3
2022-10-12T14:55:58.872Z,11.3
2022-10-12T14:57:06.012Z,11.4
2022-10-12T14:58:13.125Z,11.4
2022-10-12T14:59:20.259Z,11.4
2022-10-12T15:00:27.313Z,11.3
2022-10-12T15:01:37.882Z,11.3
2022-10-12T15:02:41.058Z,11.3
2022-10-12T15:03:48.121Z,11.3
2022-10-12T15:04:55.263Z,11.3
2022-10-12T15:06:02.342Z,11.3
2022-10-12T15:07:08.946Z,11.3
2022-10-12T15:08:16.061Z,11.2
2022-10-12T15:09:22.602Z,11.2
2022-10-12T15:10:30.264Z,11.3
2022-10-12T15:11:37.360Z,11.3
2022-10-12T15:12:43.856Z,11.3
2022-10-12T15:13:50.965Z,11.3
2022-10-12T15:14:58.160Z,11.3
2022-10-12T15:16:05.289Z,11.3
2022-10-12T15:17:12.607Z,11.3
2022-10-12T15:18:18.971Z,11.3
2022-10-12T15:19:26.013Z,11.3
2022-10-12T15:20:33.143Z,11.3
2022-10-12T15:21:40.260Z,11.3
2022-10-12T15:22:46.862Z,11.2
2022-10-12T15:25:01.049Z,11.2
2022-10-12T15:26:08.178Z,11.2
2022-10-12T15:27:15.594Z,11.2
2022-10-12T15:28:22.063Z,11.2
2022-10-12T15:29:29.008Z,11.3
2022-10-12T15:30:43.410Z,11.3
2022-10-12T15:31:44.908Z,11.3
2022-10-12T15:32:50.362Z,11.3
2022-10-12T15:33:56.870Z,11.3
2022-10-12T15:35:04.022Z,11.4
2022-10-12T15:36:10.997Z,11.4
2022-10-12T15:37:18.474Z,11.4
2022-10-12T15:38:25.311Z,11.3
2022-10-12T15:39:31.897Z,11.3
2022-10-12T15:40:38.971Z,11.3
2022-10-12T15:41:46.643Z,11.2
2022-10-12T15:42:53.193Z,11.2
2022-10-12T15:44:00.351Z,11.2
2022-10-12T15:45:06.797Z,11.1
2022-10-12T15:46:14.013Z,11.1
2022-10-12T15:47:21.100Z,11
2022-10-12T15:48:28.299Z,11
2022-10-12T15:49:35.245Z,11
2022-10-12T15:50:42.845Z,10.9
2022-10-12T15:51:49.024Z,10.9
2022-10-12T15:52:56.260Z,10.9
2022-10-12T15:54:03.209Z,10.9
2022-10-12T15:55:10.343Z,10.8
2022-10-12T15:56:16.917Z,10.8
2022-10-12T15:57:23.913Z,10.8
2022-10-12T15:58:31.031Z,10.8
2022-10-12T15:59:38.258Z,10.8
2022-10-12T16:00:45.388Z,10.8
2022-10-12T16:01:51.820Z,10.8
2022-10-12T16:02:59.100Z,10.8